createdAt,value
2023-03-06T00:00:51.828Z,35.55
2023-03-06T00:03:19.396Z,33.88
2023-03-06T00:05:46.586Z,40.30
2023-03-06T00:08:13.413Z,37.72
2023-03-06T00:10:40.636Z,36.45
2023-03-06T00:13:10.830Z,32.88
2023-03-06T00:15:37.827Z,31.80
2023-03-06T00:18:06.029Z,30.70
2023-03-06T00:20:34.146Z,24.23
2023-03-06T00:23:01.266Z,24.88
2023-03-06T00:25:28.125Z,22.73
2023-03-06T00:27:54.905Z,24.23
2023-03-06T00:30:23.982Z,21.23
2023-03-06T00:32:52.623Z,24.05
2023-03-06T00:35:19.556Z,22.40
2023-03-06T00:37:46.555Z,20.60
2023-03-06T00:40:18.662Z,22.63
2023-03-06T00:42:45.910Z,24.20
2023-03-06T00:45:13.246Z,24.58
2023-03-06T00:47:41.011Z,26.05
2023-03-06T00:50:08.781Z,27.05
2023-03-06T00:52:35.929Z,27.67
2023-03-06T00:55:02.948Z,25.92
2023-03-06T00:57:29.869Z,28.02
2023-03-06T00:59:56.646Z,29.55
2023-03-06T01:02:23.466Z,35.30
2023-03-06T01:04:50.387Z,30.13
2023-03-06T01:07:17.337Z,30.83
2023-03-06T01:09:44.198Z,30.95
2023-03-06T01:12:11.234Z,30.60
2023-03-06T01:14:38.013Z,32.65
2023-03-06T01:17:05.089Z,30.80
2023-03-06T01:19:31.961Z,29.90
2023-03-06T01:21:58.802Z,34.85
2023-03-06T01:24:25.928Z,31.45
2023-03-06T01:26:52.995Z,30.67
2023-03-06T01:29:20.165Z,30.77
2023-03-06T01:31:46.927Z,29.80
2023-03-06T01:34:13.673Z,27.30
2023-03-06T01:36:40.564Z,27.25
2023-03-06T01:39:07.401Z,29.48
2023-03-06T01:41:34.264Z,27.80
2023-03-06T01:44:01.337Z,28.17
2023-03-06T01:46:44.130Z,26.08
2023-03-06T01:49:41.729Z,27.88
2023-03-06T01:52:17.923Z,24.52
2023-03-06T01:54:59.397Z,28.45
2023-03-06T01:57:30.204Z,26.70
2023-03-06T02:00:04.757Z,26.35
2023-03-06T02:02:31.678Z,27.77
2023-03-06T02:04:59.656Z,26.92
2023-03-06T02:07:26.762Z,27.23
2023-03-06T02:09:53.791Z,29.33
2023-03-06T02:12:21.834Z,28.50
2023-03-06T02:14:49.520Z,28.15
2023-03-06T02:17:19.269Z,26.58
2023-03-06T02:20:10.813Z,28.77
2023-03-06T02:22:47.882Z,28.50
2023-03-06T02:25:33.908Z,28.42
2023-03-06T02:28:03.644Z,28.40
2023-03-06T02:30:31.391Z,26.77
2023-03-06T02:32:58.817Z,27.10
2023-03-06T02:35:31.359Z,29.45
2023-03-06T02:38:02.570Z,25.95
2023-03-06T02:40:29.437Z,26.25
2023-03-06T02:42:58.173Z,29.67
2023-03-06T02:45:42.623Z,25.50
2023-03-06T02:48:09.485Z,24.33
2023-03-06T02:50:36.307Z,29.70
2023-03-06T02:53:03.174Z,29.92
2023-03-06T02:55:29.915Z,28.00
2023-03-06T02:57:56.667Z,29.52
2023-03-06T03:00:23.460Z,28.60
2023-03-06T03:02:50.283Z,26.52
2023-03-06T03:05:17.229Z,30.50
2023-03-06T03:07:44.166Z,28.10
2023-03-06T03:10:12.339Z,27.08
2023-03-06T03:12:39.275Z,25.27
2023-03-06T03:15:06.777Z,26.20
2023-03-06T03:17:36.866Z,26.95
2023-03-06T03:20:05.582Z,24.25
2023-03-06T03:22:32.401Z,26.08
2023-03-06T03:24:59.230Z,26.95
2023-03-06T03:27:26.105Z,28.85
2023-03-06T03:29:53.040Z,30.55
2023-03-06T03:32:19.891Z,27.65
2023-03-06T03:34:46.685Z,26.42
2023-03-06T03:37:13.512Z,29.65
2023-03-06T03:39:40.406Z,30.70
2023-03-06T03:42:07.407Z,28.40
2023-03-06T03:44:34.319Z,30.33
2023-03-06T03:47:01.251Z,27.00
2023-03-06T03:49:28.054Z,32.15
2023-03-06T03:51:54.790Z,28.70
2023-03-06T03:54:21.625Z,33.25
2023-03-06T03:56:48.377Z,26.40
2023-03-06T03:59:15.143Z,28.27
2023-03-06T04:01:42.017Z,29.35
2023-03-06T04:04:08.828Z,31.75
2023-03-06T04:06:35.577Z,32.30
2023-03-06T04:09:02.466Z,32.17
2023-03-06T04:11:29.287Z,31.83
2023-03-06T04:13:56.135Z,29.10
2023-03-06T04:16:23.150Z,30.45
2023-03-06T04:18:49.939Z,29.55
2023-03-06T04:21:16.735Z,27.98
2023-03-06T04:23:43.598Z,33.65
2023-03-06T04:26:10.504Z,33.08
2023-03-06T04:28:37.332Z,32.08
2023-03-06T04:31:04.223Z,32.85
2023-03-06T04:33:31.253Z,34.55
2023-03-06T04:35:58.072Z,32.10
2023-03-06T04:38:24.857Z,34.83
2023-03-06T04:40:51.691Z,31.40
2023-03-06T04:43:18.797Z,37.80
2023-03-06T04:45:45.685Z,36.92
2023-03-06T04:48:17.672Z,38.58
2023-03-06T04:50:44.931Z,36.20
2023-03-06T04:53:11.665Z,41.05
2023-03-06T04:55:38.720Z,42.88
2023-03-06T04:58:05.609Z,39.33
2023-03-06T05:00:32.387Z,42.90
2023-03-06T05:03:01.203Z,42.97
2023-03-06T05:05:29.041Z,43.97
2023-03-06T05:07:56.218Z,48.25
2023-03-06T05:10:23.269Z,47.25
2023-03-06T05:12:50.091Z,47.10
2023-03-06T05:15:17.153Z,42.47
2023-03-06T05:17:44.701Z,44.88
2023-03-06T05:20:13.583Z,42.90
2023-03-06T05:22:40.962Z,43.38
2023-03-06T05:25:08.473Z,43.28
2023-03-06T05:27:35.413Z,43.13
2023-03-06T05:30:02.352Z,42.75
2023-03-06T05:32:29.314Z,41.30
2023-03-06T05:34:56.263Z,40.53
2023-03-06T05:37:23.579Z,40.45
2023-03-06T05:39:51.436Z,41.80
2023-03-06T05:42:18.464Z,41.35
2023-03-06T05:44:45.287Z,42.22
2023-03-06T05:47:12.288Z,46.10
2023-03-06T05:49:39.086Z,50.58
2023-03-06T05:52:07.164Z,43.20
2023-03-06T05:54:35.430Z,45.58
2023-03-06T05:57:04.937Z,49.22
2023-03-06T05:59:33.101Z,48.10
2023-03-06T06:02:00.775Z,47.28
2023-03-06T06:04:27.782Z,47.58
2023-03-06T06:06:56.787Z,50.95
2023-03-06T06:09:24.140Z,45.47
2023-03-06T06:11:53.078Z,47.75
2023-03-06T06:14:20.289Z,47.33
2023-03-06T06:16:47.249Z,48.95
2023-03-06T06:19:18.677Z,47.42
2023-03-06T06:21:47.829Z,53.15
2023-03-06T06:24:19.613Z,48.45
2023-03-06T06:26:46.877Z,47.25
2023-03-06T06:29:13.982Z,43.80
2023-03-06T06:31:41.418Z,45.63
2023-03-06T06:34:10.496Z,49.88
2023-03-06T06:36:37.427Z,47.30
2023-03-06T06:39:05.822Z,51.92
2023-03-06T06:41:51.008Z,49.35
2023-03-06T06:44:20.611Z,48.03
2023-03-06T06:49:35.500Z,50.83
2023-03-06T06:52:02.733Z,52.15
2023-03-06T06:54:29.749Z,50.92
2023-03-06T06:56:56.595Z,48.85
2023-03-06T06:59:23.880Z,54.25
2023-03-06T07:01:52.079Z,52.78
2023-03-06T07:04:19.825Z,54.35
2023-03-06T07:06:46.946Z,57.55
2023-03-06T07:09:14.236Z,58.75
2023-03-06T07:11:41.870Z,52.38
2023-03-06T07:14:08.853Z,58.00
2023-03-06T07:16:35.744Z,59.05
2023-03-06T07:19:02.576Z,57.58
2023-03-06T07:21:33.190Z,54.13
2023-03-06T07:24:00.518Z,62.80
2023-03-06T07:26:28.546Z,64.88
2023-03-06T07:28:55.467Z,61.70
2023-03-06T07:31:25.263Z,62.72
2023-03-06T07:33:54.166Z,57.17
2023-03-06T07:36:22.806Z,60.33
2023-03-06T07:38:49.579Z,60.13
2023-03-06T07:41:17.250Z,60.72
2023-03-06T07:43:45.472Z,59.45
2023-03-06T07:46:13.555Z,62.70
2023-03-06T07:48:41.181Z,65.93
2023-03-06T07:51:14.510Z,59.80
2023-03-06T07:53:42.949Z,59.55
2023-03-06T07:56:11.809Z,63.70
2023-03-06T07:58:41.181Z,60.30
2023-03-06T08:01:16.827Z,68.03
2023-03-06T08:03:44.051Z,61.90
2023-03-06T08:06:13.922Z,61.45
2023-03-06T08:08:47.784Z,61.50
2023-03-06T08:11:16.604Z,68.38
2023-03-06T08:13:43.663Z,65.35
2023-03-06T08:16:11.384Z,64.68
2023-03-06T08:18:41.431Z,60.13
2023-03-06T08:21:17.273Z,64.70
2023-03-06T08:23:44.663Z,65.18
2023-03-06T08:26:17.488Z,61.75
2023-03-06T08:31:32.888Z,58.15
2023-03-06T08:34:03.361Z,66.03
2023-03-06T08:36:30.342Z,59.85
2023-03-06T08:38:57.621Z,65.07
2023-03-06T08:41:25.112Z,66.22
2023-03-06T08:43:52.526Z,59.33
2023-03-06T08:46:20.776Z,63.25
2023-03-06T08:48:48.200Z,59.70
2023-03-06T08:51:15.444Z,63.42
2023-03-06T08:53:43.970Z,59.20
2023-03-06T08:56:23.700Z,60.40
2023-03-06T08:58:50.950Z,60.88
2023-03-06T09:01:20.971Z,58.85
2023-03-06T09:03:48.595Z,63.58
2023-03-06T09:06:15.714Z,62.10
2023-03-06T09:08:44.400Z,62.03
2023-03-06T09:11:13.786Z,62.08
2023-03-06T09:13:41.240Z,63.90
2023-03-06T09:16:09.131Z,60.47
2023-03-06T09:18:36.418Z,64.38
2023-03-06T09:21:04.806Z,59.67
2023-03-06T09:23:32.241Z,59.58
2023-03-06T09:26:00.243Z,58.00
2023-03-06T09:28:27.649Z,59.03
2023-03-06T09:30:54.990Z,60.10
2023-03-06T09:33:21.987Z,56.65
2023-03-06T09:35:55.903Z,55.08
2023-03-06T09:38:24.379Z,59.70
2023-03-06T09:41:12.486Z,62.20
2023-03-06T09:43:46.857Z,58.00
2023-03-06T09:46:27.862Z,57.92
2023-03-06T09:49:10.217Z,50.83
2023-03-06T09:51:59.285Z,50.72
2023-03-06T09:54:56.725Z,53.58
2023-03-06T09:57:33.138Z,53.08
2023-03-06T10:00:13.833Z,55.10
2023-03-06T10:02:46.604Z,49.85
2023-03-06T10:05:40.200Z,56.17
2023-03-06T10:08:21.539Z,56.72
2023-03-06T10:11:05.550Z,48.22
2023-03-06T10:13:49.054Z,44.75
2023-03-06T10:16:32.507Z,48.50
2023-03-06T10:19:03.446Z,44.65
2023-03-06T10:21:51.393Z,50.55
2023-03-06T10:24:33.512Z,40.00
2023-03-06T10:27:25.367Z,27.92
2023-03-06T10:30:04.429Z,29.08
2023-03-06T10:32:48.588Z,31.40
2023-03-06T10:35:22.688Z,41.10
2023-03-06T10:37:49.803Z,39.28
2023-03-06T10:40:22.563Z,37.78
2023-03-06T10:42:53.979Z,40.65
2023-03-06T10:45:29.915Z,31.38
2023-03-06T10:48:14.817Z,35.20
2023-03-06T10:50:41.974Z,33.05
2023-03-06T10:53:24.155Z,38.33
2023-03-06T10:55:53.868Z,41.08
2023-03-06T10:58:26.704Z,40.30
2023-03-06T11:01:20.436Z,42.53
2023-03-06T11:03:48.344Z,36.60
2023-03-06T11:06:31.786Z,35.65
2023-03-06T11:09:24.559Z,37.58
2023-03-06T11:11:52.376Z,39.50
2023-03-06T11:14:22.905Z,38.15
2023-03-06T11:16:53.981Z,31.27
2023-03-06T11:19:23.003Z,34.80
2023-03-06T11:22:00.110Z,30.55
2023-03-06T11:24:31.944Z,37.50
2023-03-06T11:27:01.866Z,31.77
2023-03-06T11:29:34.025Z,33.85
2023-03-06T11:32:29.703Z,32.63
2023-03-06T11:35:11.914Z,32.42
2023-03-06T11:37:53.161Z,26.88
2023-03-06T11:40:36.542Z,31.15
2023-03-06T11:43:19.045Z,32.75
2023-03-06T11:46:01.301Z,31.42
2023-03-06T11:48:33.223Z,33.22
2023-03-06T11:51:06.949Z,30.70
2023-03-06T11:53:43.402Z,29.90
2023-03-06T11:56:19.132Z,27.67
2023-03-06T11:59:23.951Z,33.10
2023-03-06T12:02:05.761Z,27.98
2023-03-06T12:05:04.455Z,30.58
2023-03-06T12:07:35.717Z,25.30
2023-03-06T12:10:23.679Z,27.95
2023-03-06T12:13:12.139Z,25.73
2023-03-06T12:15:50.832Z,25.90
2023-03-06T12:18:20.498Z,27.10
2023-03-06T12:20:57.757Z,28.48
2023-03-06T12:23:35.027Z,30.77
2023-03-06T12:26:21.970Z,22.70
2023-03-06T12:29:03.937Z,20.58
2023-03-06T12:31:52.552Z,22.38
2023-03-06T12:34:46.724Z,23.05
2023-03-06T12:37:31.626Z,22.80
2023-03-06T12:40:06.824Z,25.20
2023-03-06T12:42:39.869Z,25.13
2023-03-06T12:48:00.667Z,23.65
2023-03-06T12:50:30.689Z,28.95
2023-03-06T12:53:02.053Z,28.05
2023-03-06T12:55:37.682Z,28.67
2023-03-06T12:58:35.585Z,28.08
2023-03-06T13:01:14.443Z,25.65
2023-03-06T13:04:05.103Z,24.52
2023-03-06T13:06:55.511Z,26.25
2023-03-06T13:09:37.551Z,26.98
2023-03-06T13:12:22.841Z,26.60
2023-03-06T13:14:55.822Z,29.05
2023-03-06T13:17:39.178Z,28.42
2023-03-06T13:20:15.041Z,24.13
2023-03-06T13:22:46.389Z,28.73
2023-03-06T13:25:19.512Z,28.55
2023-03-06T13:27:52.905Z,28.67
2023-03-06T13:30:45.784Z,29.88
2023-03-06T13:33:29.950Z,28.48
2023-03-06T13:36:17.731Z,28.55
2023-03-06T13:38:44.508Z,31.60
2023-03-06T13:41:23.513Z,32.05
2023-03-06T13:43:52.167Z,32.50
2023-03-06T13:46:26.279Z,32.08
2023-03-06T13:49:08.382Z,33.35
2023-03-06T13:51:55.042Z,31.42
2023-03-06T13:54:24.696Z,30.35
2023-03-06T13:57:03.576Z,31.83
2023-03-06T13:59:50.504Z,32.33
2023-03-06T14:02:48.874Z,28.98
2023-03-06T14:05:18.055Z,26.65
2023-03-06T14:07:47.998Z,28.00
2023-03-06T14:10:14.921Z,28.20
2023-03-06T14:12:50.715Z,25.77
2023-03-06T14:15:23.587Z,26.38
2023-03-06T14:20:19.818Z,25.90
2023-03-06T14:22:46.849Z,28.20
2023-03-06T14:25:29.985Z,31.23
2023-03-06T14:30:52.579Z,29.50
2023-03-06T14:33:56.519Z,32.78
2023-03-06T14:36:36.421Z,32.53
2023-03-06T14:39:08.876Z,30.00
2023-03-06T14:41:37.041Z,25.80
2023-03-06T14:44:23.254Z,29.70
2023-03-06T14:46:52.819Z,22.75
2023-03-06T14:49:22.145Z,29.33
2023-03-06T14:51:54.665Z,30.92
2023-03-06T14:54:34.365Z,34.10
2023-03-06T14:57:13.450Z,38.42
2023-03-06T14:59:51.144Z,36.90
2023-03-06T15:02:21.983Z,38.10
2023-03-06T15:04:55.057Z,43.65
2023-03-06T15:07:30.478Z,39.75
2023-03-06T15:09:58.674Z,41.83
2023-03-06T15:12:31.386Z,37.83
2023-03-06T15:15:08.098Z,35.40
2023-03-06T15:17:43.640Z,40.90
2023-03-06T15:20:37.828Z,34.17
2023-03-06T15:23:21.852Z,34.83
2023-03-06T15:25:56.299Z,29.05
2023-03-06T15:28:25.841Z,33.35
2023-03-06T15:31:27.952Z,25.98
2023-03-06T15:34:07.861Z,33.40
2023-03-06T15:36:37.448Z,31.40
2023-03-06T15:39:33.830Z,30.95
2023-03-06T15:42:07.076Z,33.90
2023-03-06T15:44:34.000Z,32.33
2023-03-06T15:47:08.792Z,30.08
2023-03-06T15:49:38.373Z,32.08
2023-03-06T15:52:09.130Z,31.85
2023-03-06T15:54:36.818Z,32.63
2023-03-06T15:57:07.273Z,33.83
2023-03-06T15:59:41.742Z,31.02
2023-03-06T16:02:19.279Z,32.25
2023-03-06T16:04:46.437Z,29.25
2023-03-06T16:07:13.421Z,29.83
2023-03-06T16:09:41.749Z,29.08
2023-03-06T16:12:20.451Z,26.70
2023-03-06T16:14:48.651Z,29.90
2023-03-06T16:17:16.236Z,29.48
2023-03-06T16:19:44.428Z,29.58
2023-03-06T16:22:11.913Z,31.25
2023-03-06T16:24:38.727Z,32.60
2023-03-06T16:27:07.022Z,28.02
2023-03-06T16:29:33.948Z,29.27
2023-03-06T16:32:02.044Z,36.67
2023-03-06T16:34:29.064Z,36.35
2023-03-06T16:36:55.917Z,31.60
2023-03-06T16:39:23.998Z,30.35
2023-03-06T16:41:51.833Z,37.90
2023-03-06T16:44:19.330Z,35.45
2023-03-06T16:46:48.493Z,27.25
2023-03-06T16:49:19.456Z,30.30
2023-03-06T16:51:46.354Z,31.10
2023-03-06T16:54:13.582Z,31.75
2023-03-06T16:56:40.524Z,30.48
2023-03-06T16:59:07.558Z,31.42
2023-03-06T17:01:34.679Z,39.10
2023-03-06T17:04:01.626Z,29.95
2023-03-06T17:06:28.743Z,32.80
2023-03-06T17:08:57.961Z,35.80
2023-03-06T17:11:25.195Z,37.53
2023-03-06T17:13:52.225Z,36.00
2023-03-06T17:16:19.195Z,32.85
2023-03-06T17:18:46.518Z,36.97
2023-03-06T17:21:15.834Z,38.58
2023-03-06T17:23:42.949Z,37.05
2023-03-06T17:26:18.039Z,44.72
2023-03-06T17:28:45.814Z,37.05
2023-03-06T17:31:13.017Z,36.80
2023-03-06T17:33:40.088Z,36.15
2023-03-06T17:36:07.343Z,37.30
2023-03-06T17:38:34.194Z,40.58
2023-03-06T17:41:05.137Z,36.58
2023-03-06T17:43:32.698Z,30.48
2023-03-06T17:46:13.158Z,32.65
2023-03-06T17:48:40.419Z,30.08
2023-03-06T17:51:07.753Z,32.50
2023-03-06T17:53:34.854Z,32.58
2023-03-06T17:56:06.661Z,31.40
2023-03-06T17:58:33.931Z,30.67
2023-03-06T18:01:01.049Z,31.85
2023-03-06T18:03:27.937Z,29.45
2023-03-06T18:06:02.581Z,35.78
2023-03-06T18:08:29.651Z,35.45
2023-03-06T18:11:00.566Z,30.95
2023-03-06T18:13:27.515Z,32.63
2023-03-06T18:15:54.396Z,34.80
2023-03-06T18:18:21.227Z,32.90
2023-03-06T18:20:48.346Z,34.20
2023-03-06T18:23:15.148Z,35.17
2023-03-06T18:25:41.977Z,37.03
2023-03-06T18:28:08.786Z,36.83
2023-03-06T18:30:43.245Z,38.05
2023-03-06T18:33:10.440Z,38.97
2023-03-06T18:35:37.571Z,43.35
2023-03-06T18:38:04.592Z,35.67
2023-03-06T18:40:31.377Z,41.85
2023-03-06T18:42:58.461Z,37.58
2023-03-06T18:45:25.388Z,36.08
2023-03-06T18:47:52.152Z,38.80
2023-03-06T18:50:19.049Z,33.35
2023-03-06T18:52:46.083Z,41.22
2023-03-06T18:55:13.030Z,37.05
2023-03-06T18:57:41.421Z,37.75
2023-03-06T19:00:08.958Z,35.95
2023-03-06T19:02:35.956Z,39.50
2023-03-06T19:05:04.405Z,37.60
2023-03-06T19:07:31.201Z,34.17
2023-03-06T19:09:58.024Z,38.80
2023-03-06T19:12:24.859Z,37.42
2023-03-06T19:14:51.575Z,36.33
2023-03-06T19:17:18.433Z,37.55
2023-03-06T19:19:45.200Z,34.70
2023-03-06T19:22:11.994Z,34.25
2023-03-06T19:24:38.798Z,31.27
2023-03-06T19:27:05.679Z,33.28
2023-03-06T19:29:33.562Z,30.20
2023-03-06T19:32:00.390Z,30.10
2023-03-06T19:34:27.252Z,30.83
2023-03-06T19:36:54.095Z,28.65
2023-03-06T19:39:20.884Z,30.08
2023-03-06T19:41:48.003Z,31.00
2023-03-06T19:44:16.326Z,28.35
2023-03-06T19:46:43.622Z,27.80
2023-03-06T19:49:16.827Z,27.42
2023-03-06T19:51:43.876Z,27.83
2023-03-06T19:54:12.363Z,28.20
2023-03-06T19:56:39.399Z,28.60
2023-03-06T19:59:06.213Z,28.70
2023-03-06T20:01:34.370Z,26.67
2023-03-06T20:04:01.481Z,28.15
2023-03-06T20:06:31.298Z,30.55
2023-03-06T20:08:58.206Z,28.67
2023-03-06T20:11:29.843Z,31.65
2023-03-06T20:14:01.542Z,29.38
2023-03-06T20:16:29.990Z,29.77
2023-03-06T20:18:59.042Z,30.27
2023-03-06T20:21:27.956Z,29.73
2023-03-06T20:23:57.036Z,31.00
2023-03-06T20:26:25.628Z,33.05
2023-03-06T20:28:52.532Z,30.95
2023-03-06T20:31:21.039Z,27.30
2023-03-06T20:33:50.870Z,30.05
2023-03-06T20:36:20.730Z,27.05
2023-03-06T20:38:48.000Z,30.13
2023-03-06T20:41:20.850Z,32.28
2023-03-06T20:46:15.190Z,32.17
2023-03-06T20:48:43.306Z,30.40
2023-03-06T20:51:22.220Z,32.22
2023-03-06T20:53:50.724Z,30.85
2023-03-06T20:56:20.317Z,31.83
2023-03-06T20:58:47.191Z,31.60
2023-03-06T21:01:24.365Z,28.35
2023-03-06T21:03:52.142Z,33.47
2023-03-06T21:06:19.781Z,35.75
2023-03-06T21:08:47.694Z,33.22
2023-03-06T21:11:14.964Z,36.10
2023-03-06T21:13:42.175Z,35.85
2023-03-06T21:16:12.583Z,38.35
2023-03-06T21:18:40.092Z,36.42
2023-03-06T21:21:08.870Z,35.95
2023-03-06T21:23:36.016Z,38.83
2023-03-06T21:26:03.360Z,34.97
2023-03-06T21:28:31.023Z,35.17
2023-03-06T21:31:01.289Z,37.63
2023-03-06T21:33:28.610Z,37.33
2023-03-06T21:35:55.499Z,38.30
2023-03-06T21:38:22.411Z,37.50
2023-03-06T21:40:49.328Z,37.45
2023-03-06T21:43:17.618Z,43.53
2023-03-06T21:45:48.933Z,39.08
2023-03-06T21:48:16.263Z,39.30
2023-03-06T21:50:43.091Z,37.42
2023-03-06T21:53:09.975Z,41.90
2023-03-06T21:55:40.791Z,38.00
2023-03-06T21:58:08.703Z,40.83
2023-03-06T22:00:36.770Z,42.75
2023-03-06T22:03:04.720Z,39.40
2023-03-06T22:05:34.395Z,40.90
2023-03-06T22:08:01.268Z,38.17
2023-03-06T22:10:28.233Z,39.58
2023-03-06T22:12:55.094Z,40.85
2023-03-06T22:15:22.101Z,46.45
2023-03-06T22:17:48.976Z,37.70
2023-03-06T22:20:15.980Z,43.75
2023-03-06T22:22:43.913Z,36.90
2023-03-06T22:25:11.924Z,41.50
2023-03-06T22:27:39.025Z,36.40
2023-03-06T22:30:06.476Z,35.60
2023-03-06T22:32:33.442Z,40.25
2023-03-06T22:35:00.330Z,36.50
2023-03-06T22:37:27.305Z,34.30
2023-03-06T22:39:54.148Z,38.25
2023-03-06T22:42:21.009Z,37.78
2023-03-06T22:44:47.876Z,34.83
2023-03-06T22:47:14.778Z,33.35
2023-03-06T22:49:41.559Z,35.28
2023-03-06T22:52:08.443Z,37.05
2023-03-06T22:54:35.407Z,35.45
2023-03-06T22:57:02.210Z,32.97
2023-03-06T22:59:29.181Z,32.90
2023-03-06T23:01:55.956Z,31.38
2023-03-06T23:04:23.015Z,32.58
2023-03-06T23:06:50.192Z,34.45
2023-03-06T23:09:21.474Z,29.90
2023-03-06T23:11:49.705Z,33.65
2023-03-06T23:14:18.203Z,29.45
2023-03-06T23:16:45.289Z,32.72
2023-03-06T23:19:12.334Z,29.20
2023-03-06T23:21:39.118Z,29.70
2023-03-06T23:24:06.937Z,27.98
2023-03-06T23:26:37.188Z,28.80
2023-03-06T23:29:04.402Z,28.67
2023-03-06T23:31:32.363Z,26.77
2023-03-06T23:34:01.124Z,27.48
2023-03-06T23:36:28.876Z,26.55
2023-03-06T23:38:55.824Z,25.15
2023-03-06T23:41:23.845Z,22.48
2023-03-06T23:43:55.267Z,22.17
2023-03-06T23:46:22.976Z,23.38
2023-03-06T23:48:49.975Z,22.98
2023-03-06T23:51:18.955Z,25.42
2023-03-06T23:53:47.236Z,22.02
2023-03-06T23:56:14.778Z,21.25
2023-03-06T23:58:41.671Z,21.38
